createdAt,value
2022-10-12T00:00:14.531Z,14.73
2022-10-12T00:01:11.754Z,16.90
2022-10-12T00:02:08.461Z,15.00
2022-10-12T00:03:05.196Z,12.55
2022-10-12T00:04:01.823Z,13.80
2022-10-12T00:04:58.457Z,12.25
2022-10-12T00:06:23.261Z,11.15
2022-10-12T00:07:19.853Z,9.50
2022-10-12T00:08:16.612Z,9.13
2022-10-12T00:09:13.169Z,9.45
2022-10-12T00:10:09.827Z,8.60
2022-10-12T00:11:11.595Z,9.32
2022-10-12T00:12:08.188Z,8.77
2022-10-12T00:13:04.751Z,8.20
2022-10-12T00:14:01.645Z,8.10
2022-10-12T00:14:58.400Z,7.53
2022-10-12T00:15:55.153Z,8.73
2022-10-12T00:16:51.771Z,7.68
2022-10-12T00:17:48.334Z,7.70
2022-10-12T00:18:45.031Z,7.93
2022-10-12T00:19:41.618Z,7.68
2022-10-12T00:20:38.927Z,8.25
2022-10-12T00:21:35.565Z,8.27
2022-10-12T00:22:32.360Z,8.35
2022-10-12T00:23:30.567Z,7.85
2022-10-12T00:24:27.202Z,9.30
2022-10-12T00:25:23.787Z,7.68
2022-10-12T00:26:22.375Z,7.57
2022-10-12T00:27:18.940Z,7.85
2022-10-12T00:28:17.130Z,8.55
2022-10-12T00:29:15.475Z,8.43
2022-10-12T00:30:15.721Z,7.68
2022-10-12T00:31:17.806Z,9.77
2022-10-12T00:32:15.853Z,8.13
2022-10-12T00:33:15.282Z,8.07
2022-10-12T00:34:13.175Z,7.93
2022-10-12T00:35:11.546Z,9.70
2022-10-12T00:36:21.536Z,8.48
2022-10-12T00:37:19.213Z,7.10
2022-10-12T00:38:16.086Z,7.95
2022-10-12T00:39:13.158Z,9.02
2022-10-12T00:40:10.487Z,7.78
2022-10-12T00:41:07.166Z,8.95
2022-10-12T00:42:03.994Z,8.20
2022-10-12T00:43:00.617Z,8.63
2022-10-12T00:43:58.716Z,8.27
2022-10-12T00:44:55.674Z,9.82
2022-10-12T00:45:52.508Z,8.15
2022-10-12T00:46:49.139Z,7.90
2022-10-12T00:47:52.329Z,7.90
2022-10-12T00:48:56.525Z,7.97
2022-10-12T00:50:20.643Z,8.10
2022-10-12T00:51:20.622Z,8.68
2022-10-12T00:52:21.864Z,8.90
2022-10-12T00:53:23.109Z,7.63
2022-10-12T00:54:29.211Z,8.65
2022-10-12T00:55:29.512Z,7.32
2022-10-12T00:56:29.928Z,8.93
2022-10-12T00:57:26.717Z,8.82
2022-10-12T00:58:23.693Z,8.18
2022-10-12T00:59:27.246Z,8.88
2022-10-12T01:00:23.943Z,6.78
2022-10-12T01:01:21.941Z,7.65
2022-10-12T01:02:19.580Z,8.27
2022-10-12T01:03:21.235Z,6.70
2022-10-12T01:04:17.882Z,8.70
2022-10-12T01:05:15.139Z,7.53
2022-10-12T01:06:12.018Z,7.85
2022-10-12T01:07:08.633Z,9.15
2022-10-12T01:08:05.404Z,8.32
2022-10-12T01:09:03.529Z,8.15
2022-10-12T01:10:00.136Z,7.50
2022-10-12T01:10:56.803Z,7.30
2022-10-12T01:11:53.561Z,8.65
2022-10-12T01:12:50.467Z,7.28
2022-10-12T01:13:47.015Z,8.35
2022-10-12T01:14:43.718Z,9.80
2022-10-12T01:16:19.748Z,7.95
2022-10-12T01:17:59.664Z,8.50
2022-10-12T01:19:24.372Z,7.93
2022-10-12T01:20:40.049Z,7.78
2022-10-12T01:21:45.837Z,7.18
2022-10-12T01:22:54.653Z,7.25
2022-10-12T01:24:15.565Z,8.73
2022-10-12T01:25:51.015Z,7.95
2022-10-12T01:27:20.132Z,7.32
2022-10-12T01:28:27.327Z,7.72
2022-10-12T01:30:01.743Z,8.05
2022-10-12T01:31:16.810Z,7.43
2022-10-12T01:32:21.970Z,8.13
2022-10-12T01:33:53.793Z,8.20
2022-10-12T01:34:58.389Z,8.55
2022-10-12T01:36:13.975Z,8.80
2022-10-12T01:37:21.408Z,8.27
2022-10-12T01:38:32.320Z,8.32
2022-10-12T01:39:41.297Z,8.15
2022-10-12T01:40:45.348Z,7.45
2022-10-12T01:41:51.188Z,7.97
2022-10-12T01:42:48.566Z,8.27
2022-10-12T01:43:45.843Z,8.50
2022-10-12T01:44:42.989Z,9.98
2022-10-12T01:45:39.732Z,15.25
2022-10-12T01:46:40.561Z,15.02
2022-10-12T01:47:40.128Z,18.50
2022-10-12T01:48:37.013Z,17.55
2022-10-12T01:49:35.777Z,13.85
2022-10-12T01:50:45.545Z,14.80
2022-10-12T01:52:03.351Z,15.32
2022-10-12T01:53:08.738Z,13.57
2022-10-12T01:54:11.505Z,14.23
2022-10-12T01:55:30.134Z,18.67
2022-10-12T01:56:42.416Z,22.55
2022-10-12T01:58:00.300Z,33.22
2022-10-12T01:59:08.972Z,59.88
2022-10-12T02:00:07.363Z,85.10
2022-10-12T02:01:35.038Z,77.20
2022-10-12T02:02:40.541Z,78.88
2022-10-12T02:04:06.454Z,87.47
2022-10-12T02:05:14.861Z,68.07
2022-10-12T02:06:16.152Z,68.03
2022-10-12T02:07:22.638Z,66.60
2022-10-12T02:08:40.407Z,55.65
2022-10-12T02:09:38.576Z,46.92
2022-10-12T02:10:51.002Z,57.30
2022-10-12T02:11:52.495Z,55.00
2022-10-12T02:12:50.269Z,59.40
2022-10-12T02:14:12.607Z,63.88
2022-10-12T02:15:11.954Z,68.57
2022-10-12T02:16:13.655Z,61.95
2022-10-12T02:17:14.574Z,57.80
2022-10-12T02:18:18.376Z,69.55
2022-10-12T02:19:21.695Z,74.63
2022-10-12T02:20:19.812Z,62.17
2022-10-12T02:21:21.204Z,40.17
2022-10-12T02:22:18.437Z,35.90
2022-10-12T02:23:15.716Z,28.92
2022-10-12T02:24:14.085Z,19.77
2022-10-12T02:25:15.580Z,22.77
2022-10-12T02:26:13.989Z,21.67
2022-10-12T02:27:14.146Z,15.32
2022-10-12T02:28:15.153Z,15.30
2022-10-12T02:29:16.048Z,13.57
2022-10-12T02:30:13.035Z,13.75
2022-10-12T02:31:38.060Z,15.15
2022-10-12T02:32:44.889Z,17.20
2022-10-12T02:34:16.565Z,17.02
2022-10-12T02:35:38.620Z,16.65
2022-10-12T02:36:44.005Z,14.35
2022-10-12T02:37:44.895Z,9.98
2022-10-12T02:39:03.716Z,11.73
2022-10-12T02:40:10.580Z,13.20
2022-10-12T02:41:15.830Z,13.18
2022-10-12T02:42:17.580Z,9.95
2022-10-12T02:43:20.702Z,10.38
2022-10-12T02:44:23.945Z,10.20
2022-10-12T02:45:24.069Z,9.70
2022-10-12T02:46:25.303Z,10.65
2022-10-12T02:47:26.642Z,9.35
2022-10-12T02:48:25.279Z,9.70
2022-10-12T02:49:26.064Z,9.10
2022-10-12T02:50:24.657Z,10.15
2022-10-12T02:51:22.152Z,10.15
2022-10-12T02:52:18.777Z,10.27
2022-10-12T02:53:16.593Z,13.43
2022-10-12T02:54:13.421Z,9.70
2022-10-12T02:55:11.424Z,15.35
2022-10-12T02:56:12.384Z,15.75
2022-10-12T02:57:08.997Z,16.08
2022-10-12T02:58:05.604Z,15.55
2022-10-12T02:59:02.155Z,14.90
2022-10-12T02:59:58.936Z,17.55
2022-10-12T03:00:55.705Z,23.40
2022-10-12T03:01:52.280Z,20.85
2022-10-12T03:02:48.992Z,24.15
2022-10-12T03:03:46.354Z,22.90
2022-10-12T03:04:42.985Z,17.80
2022-10-12T03:05:39.580Z,17.75
2022-10-12T03:06:36.187Z,15.48
2022-10-12T03:07:32.772Z,17.13
2022-10-12T03:08:29.582Z,13.90
2022-10-12T03:09:26.170Z,11.18
2022-10-12T03:10:22.728Z,13.45
2022-10-12T03:11:19.317Z,10.38
2022-10-12T03:12:15.909Z,9.18
2022-10-12T03:13:12.586Z,10.05
2022-10-12T03:14:11.526Z,9.93
2022-10-12T03:15:08.495Z,9.43
2022-10-12T03:16:07.452Z,10.60
2022-10-12T03:17:05.026Z,8.85
2022-10-12T03:18:01.681Z,8.95
2022-10-12T03:18:58.672Z,10.13
2022-10-12T03:19:55.341Z,11.02
2022-10-12T03:20:51.947Z,10.32
2022-10-12T03:21:48.531Z,11.40
2022-10-12T03:22:45.219Z,13.70
2022-10-12T03:23:41.905Z,19.27
2022-10-12T03:24:38.552Z,28.17
2022-10-12T03:25:35.132Z,31.70
2022-10-12T03:26:31.722Z,28.17
2022-10-12T03:27:28.362Z,18.95
2022-10-12T03:28:25.068Z,17.50
2022-10-12T03:29:21.687Z,16.17
2022-10-12T03:30:18.333Z,19.02
2022-10-12T03:31:14.955Z,17.88
2022-10-12T03:32:11.618Z,15.93
2022-10-12T03:33:08.190Z,13.73
2022-10-12T03:34:05.012Z,11.25
2022-10-12T03:35:01.631Z,8.98
2022-10-12T03:35:58.339Z,7.93
2022-10-12T03:36:54.897Z,8.00
2022-10-12T03:37:51.434Z,9.25
2022-10-12T03:38:47.983Z,9.90
2022-10-12T03:39:44.679Z,9.60
2022-10-12T03:40:41.941Z,7.55
2022-10-12T03:41:38.547Z,8.25
2022-10-12T03:42:35.115Z,8.35
2022-10-12T03:43:31.708Z,8.85
2022-10-12T03:44:28.292Z,9.20
2022-10-12T03:45:25.066Z,10.93
2022-10-12T03:46:21.674Z,13.10
2022-10-12T03:47:18.350Z,13.15
2022-10-12T03:48:14.927Z,9.98
2022-10-12T03:49:11.508Z,9.35
2022-10-12T03:50:08.500Z,9.05
2022-10-12T03:51:05.256Z,9.45
2022-10-12T03:52:01.906Z,11.20
2022-10-12T03:52:58.451Z,10.38
2022-10-12T03:53:55.021Z,9.88
2022-10-12T03:54:51.576Z,11.18
2022-10-12T03:55:48.159Z,14.02
2022-10-12T03:56:44.749Z,13.45
2022-10-12T03:57:41.357Z,11.82
2022-10-12T03:58:37.886Z,13.25
2022-10-12T03:59:34.420Z,12.57
2022-10-12T04:00:31.180Z,13.30
2022-10-12T04:01:27.935Z,11.68
2022-10-12T04:02:24.498Z,13.77
2022-10-12T04:03:21.694Z,15.50
2022-10-12T04:04:18.299Z,11.82
2022-10-12T04:05:14.963Z,11.00
2022-10-12T04:06:11.558Z,10.05
2022-10-12T04:07:08.364Z,11.77
2022-10-12T04:08:05.175Z,10.98
2022-10-12T04:09:01.842Z,8.98
2022-10-12T04:09:58.437Z,9.18
2022-10-12T04:10:54.999Z,9.50
2022-10-12T04:11:51.602Z,8.30
2022-10-12T04:12:48.253Z,9.85
2022-10-12T04:13:44.823Z,9.60
2022-10-12T04:14:41.452Z,10.70
2022-10-12T04:15:38.015Z,10.13
2022-10-12T04:16:34.575Z,10.85
2022-10-12T04:17:31.223Z,11.30
2022-10-12T04:18:27.802Z,10.85
2022-10-12T04:19:24.443Z,10.85
2022-10-12T04:20:21.149Z,10.07
2022-10-12T04:21:25.705Z,10.52
2022-10-12T04:22:24.061Z,10.75
2022-10-12T04:23:20.677Z,10.00
2022-10-12T04:24:17.330Z,9.48
2022-10-12T04:25:13.908Z,7.57
2022-10-12T04:26:10.533Z,10.13
2022-10-12T04:27:07.369Z,9.68
2022-10-12T04:28:03.963Z,9.10
2022-10-12T04:29:00.469Z,8.57
2022-10-12T04:29:57.093Z,8.57
2022-10-12T04:30:53.670Z,9.20
2022-10-12T04:31:50.353Z,9.50
2022-10-12T04:32:46.964Z,8.80
2022-10-12T04:33:43.542Z,9.90
2022-10-12T04:34:40.286Z,8.65
2022-10-12T04:35:37.256Z,9.27
2022-10-12T04:36:33.814Z,8.85
2022-10-12T04:37:30.357Z,9.77
2022-10-12T04:38:26.941Z,10.38
2022-10-12T04:39:23.841Z,9.82
2022-10-12T04:40:20.435Z,8.85
2022-10-12T04:41:17.124Z,8.73
2022-10-12T04:42:13.690Z,8.65
2022-10-12T04:43:10.228Z,9.05
2022-10-12T04:44:07.372Z,9.75
2022-10-12T04:45:04.652Z,9.43
2022-10-12T04:46:01.270Z,9.60
2022-10-12T04:46:57.837Z,9.63
2022-10-12T04:47:54.507Z,9.23
2022-10-12T04:48:51.316Z,9.32
2022-10-12T04:49:47.880Z,9.13
2022-10-12T04:50:44.430Z,9.27
2022-10-12T04:51:40.992Z,9.18
2022-10-12T04:52:38.805Z,9.40
2022-10-12T04:53:35.555Z,9.15
2022-10-12T04:54:32.941Z,8.88
2022-10-12T04:55:29.538Z,9.45
2022-10-12T04:56:26.565Z,9.82
2022-10-12T04:57:23.243Z,9.02
2022-10-12T04:58:19.866Z,9.68
2022-10-12T04:59:16.474Z,10.07
2022-10-12T05:00:13.483Z,9.90
2022-10-12T05:01:10.333Z,9.70
2022-10-12T05:02:07.249Z,9.98
2022-10-12T05:03:05.194Z,9.77
2022-10-12T05:04:01.900Z,9.60
2022-10-12T05:04:58.475Z,8.80
2022-10-12T05:05:56.581Z,12.27
2022-10-12T05:06:53.432Z,13.65
2022-10-12T05:07:50.095Z,16.63
2022-10-12T05:08:46.695Z,13.93
2022-10-12T05:09:43.326Z,12.65
2022-10-12T05:10:40.878Z,16.05
2022-10-12T05:11:37.525Z,15.18
2022-10-12T05:12:34.114Z,14.27
2022-10-12T05:13:30.846Z,14.73
2022-10-12T05:14:30.066Z,13.90
2022-10-12T05:16:26.508Z,9.88
2022-10-12T05:17:23.247Z,11.93
2022-10-12T05:18:19.939Z,11.77
2022-10-12T05:19:16.558Z,13.65
2022-10-12T05:20:13.510Z,12.65
2022-10-12T05:21:10.183Z,12.30
2022-10-12T05:22:06.848Z,12.15
2022-10-12T05:23:03.795Z,11.57
2022-10-12T05:24:00.373Z,12.82
2022-10-12T05:24:56.948Z,13.23
2022-10-12T05:25:56.218Z,16.70
2022-10-12T05:26:52.919Z,17.52
2022-10-12T05:27:49.575Z,18.42
2022-10-12T05:28:46.209Z,17.23
2022-10-12T05:29:43.007Z,20.40
2022-10-12T05:30:39.896Z,17.27
2022-10-12T05:31:36.456Z,18.05
2022-10-12T05:32:33.077Z,18.63
2022-10-12T05:33:30.229Z,18.00
2022-10-12T05:34:26.882Z,18.70
2022-10-12T05:35:23.667Z,18.92
2022-10-12T05:36:20.309Z,16.20
2022-10-12T05:37:16.954Z,15.40
2022-10-12T05:38:13.527Z,16.63
2022-10-12T05:39:10.179Z,13.73
2022-10-12T05:40:07.582Z,13.90
2022-10-12T05:41:04.301Z,17.27
2022-10-12T05:42:00.908Z,16.77
2022-10-12T05:42:57.453Z,16.80
2022-10-12T05:43:54.024Z,17.88
2022-10-12T05:44:51.698Z,15.30
2022-10-12T05:45:48.412Z,13.23
2022-10-12T05:46:45.137Z,13.13
2022-10-12T05:47:43.189Z,12.82
2022-10-12T05:48:40.044Z,11.63
2022-10-12T05:49:36.676Z,11.10
2022-10-12T05:50:33.339Z,11.68
2022-10-12T05:51:29.900Z,10.95
2022-10-12T05:52:26.517Z,10.77
2022-10-12T05:53:23.582Z,11.10
2022-10-12T05:54:20.185Z,11.18
2022-10-12T05:55:16.852Z,10.27
2022-10-12T05:56:13.686Z,10.85
2022-10-12T05:57:10.235Z,10.85
2022-10-12T05:58:06.795Z,10.73
2022-10-12T05:59:04.136Z,10.70
2022-10-12T06:00:00.751Z,9.80
2022-10-12T06:01:08.375Z,11.15
2022-10-12T06:02:05.042Z,10.18
2022-10-12T06:03:01.643Z,9.23
2022-10-12T06:03:58.233Z,10.50
2022-10-12T06:04:54.831Z,10.07
2022-10-12T06:05:51.387Z,10.55
2022-10-12T06:06:47.973Z,10.40
2022-10-12T06:07:44.590Z,10.57
2022-10-12T06:08:41.190Z,11.98
2022-10-12T06:09:40.709Z,11.98
2022-10-12T06:11:40.882Z,12.00
2022-10-12T06:12:37.674Z,10.68
2022-10-12T06:13:34.457Z,9.77
2022-10-12T06:14:31.007Z,10.07
2022-10-12T06:15:27.719Z,10.35
2022-10-12T06:16:24.364Z,11.18
2022-10-12T06:17:21.060Z,10.88
2022-10-12T06:18:18.321Z,11.07
2022-10-12T06:19:14.895Z,10.50
2022-10-12T06:20:11.638Z,11.05
2022-10-12T06:21:32.054Z,10.40
2022-10-12T06:22:24.885Z,12.30
2022-10-12T06:23:22.436Z,10.35
2022-10-12T06:24:19.007Z,11.43
2022-10-12T06:25:15.753Z,12.18
2022-10-12T06:26:12.564Z,12.30
2022-10-12T06:27:09.245Z,13.18
2022-10-12T06:28:05.823Z,15.63
2022-10-12T06:29:02.609Z,20.75
2022-10-12T06:29:59.174Z,23.80
2022-10-12T06:30:58.613Z,33.72
2022-10-12T06:31:55.326Z,28.90
2022-10-12T06:32:51.907Z,29.65
2022-10-12T06:33:50.938Z,24.00
2022-10-12T06:34:47.524Z,18.35
2022-10-12T06:35:44.096Z,18.08
2022-10-12T06:36:40.829Z,17.95
2022-10-12T06:37:49.616Z,15.18
2022-10-12T06:38:46.787Z,12.07
2022-10-12T06:39:43.398Z,11.00
2022-10-12T06:40:39.987Z,10.52
2022-10-12T06:41:36.570Z,11.43
2022-10-12T06:42:33.160Z,10.27
2022-10-12T06:43:29.778Z,10.80
2022-10-12T06:44:26.392Z,10.82
2022-10-12T06:45:23.091Z,10.40
2022-10-12T06:46:19.688Z,10.80
2022-10-12T06:47:16.270Z,10.43
2022-10-12T06:48:17.607Z,11.80
2022-10-12T06:49:15.400Z,11.27
2022-10-12T06:50:12.434Z,10.52
2022-10-12T06:51:09.033Z,11.18
2022-10-12T06:52:05.738Z,11.00
2022-10-12T06:53:02.416Z,11.05
2022-10-12T06:53:59.118Z,11.77
2022-10-12T06:54:55.732Z,10.55
2022-10-12T06:55:52.290Z,11.23
2022-10-12T06:56:48.931Z,10.95
2022-10-12T06:57:45.561Z,9.90
2022-10-12T06:58:42.180Z,9.73
2022-10-12T06:59:38.757Z,10.68
2022-10-12T07:00:35.630Z,10.60
2022-10-12T07:01:32.423Z,10.00
2022-10-12T07:02:29.046Z,10.15
2022-10-12T07:03:25.648Z,10.18
2022-10-12T07:04:22.203Z,10.23
2022-10-12T07:05:19.249Z,10.13
2022-10-12T07:06:16.155Z,10.88
2022-10-12T07:07:12.746Z,10.75
2022-10-12T07:08:09.463Z,10.98
2022-10-12T07:09:06.064Z,11.23
2022-10-12T07:10:04.702Z,11.32
2022-10-12T07:11:02.605Z,11.57
2022-10-12T07:11:59.250Z,13.02
2022-10-12T07:12:56.045Z,15.70
2022-10-12T07:13:52.688Z,16.27
2022-10-12T07:14:49.340Z,13.85
2022-10-12T07:15:50.308Z,11.48
2022-10-12T07:16:50.492Z,11.23
2022-10-12T07:17:49.710Z,11.95
2022-10-12T07:18:46.338Z,11.93
2022-10-12T07:19:43.201Z,11.82
2022-10-12T07:20:40.500Z,11.25
2022-10-12T07:21:37.580Z,10.65
2022-10-12T07:22:34.761Z,12.55
2022-10-12T07:23:32.661Z,12.13
2022-10-12T07:24:36.337Z,12.40
2022-10-12T07:25:33.023Z,11.80
2022-10-12T07:26:29.630Z,11.27
2022-10-12T07:27:26.313Z,11.23
2022-10-12T07:28:23.625Z,10.50
2022-10-12T07:29:20.214Z,11.05
2022-10-12T07:30:16.879Z,10.23
2022-10-12T07:31:13.533Z,10.68
2022-10-12T07:32:10.226Z,10.90
2022-10-12T07:33:06.916Z,10.57
2022-10-12T07:34:03.642Z,10.80
2022-10-12T07:35:00.291Z,10.95
2022-10-12T07:36:13.203Z,10.32
2022-10-12T07:37:10.580Z,11.30
2022-10-12T07:38:07.167Z,13.05
2022-10-12T07:39:03.827Z,12.77
2022-10-12T07:40:00.376Z,11.43
2022-10-12T07:41:04.216Z,12.00
2022-10-12T07:42:00.902Z,13.80
2022-10-12T07:43:15.339Z,13.57
2022-10-12T07:44:12.939Z,14.32
2022-10-12T07:45:09.668Z,13.07
2022-10-12T07:46:07.047Z,14.77
2022-10-12T07:47:03.689Z,14.07
2022-10-12T07:48:00.289Z,14.40
2022-10-12T07:48:57.824Z,12.70
2022-10-12T07:49:54.394Z,12.93
2022-10-12T07:50:51.115Z,12.27
2022-10-12T07:51:47.772Z,11.13
2022-10-12T07:52:44.347Z,10.95
2022-10-12T07:53:40.971Z,12.98
2022-10-12T07:54:37.573Z,10.65
2022-10-12T07:55:34.251Z,10.73
2022-10-12T07:56:30.913Z,9.48
2022-10-12T07:57:27.646Z,11.23
2022-10-12T07:58:24.443Z,11.63
2022-10-12T07:59:21.177Z,10.35
2022-10-12T08:00:18.136Z,10.52
2022-10-12T08:01:14.938Z,10.52
2022-10-12T08:02:12.407Z,11.50
2022-10-12T08:03:09.073Z,12.20
2022-10-12T08:04:05.692Z,12.07
2022-10-12T08:05:02.295Z,11.52
2022-10-12T08:05:58.889Z,11.77
2022-10-12T08:06:55.625Z,11.32
2022-10-12T08:07:52.814Z,11.27
2022-10-12T08:08:50.361Z,11.25
2022-10-12T08:09:48.447Z,10.55
2022-10-12T08:10:45.063Z,10.63
2022-10-12T08:11:42.336Z,11.57
2022-10-12T08:12:38.915Z,10.57
2022-10-12T08:13:35.768Z,9.23
2022-10-12T08:14:32.687Z,10.52
2022-10-12T08:15:29.542Z,10.40
2022-10-12T08:16:26.194Z,9.95
2022-10-12T08:17:22.774Z,10.52
2022-10-12T08:18:19.346Z,9.95
2022-10-12T08:19:16.063Z,10.63
2022-10-12T08:20:12.819Z,9.73
2022-10-12T08:21:11.170Z,11.30
2022-10-12T08:22:08.212Z,11.30
2022-10-12T08:23:04.780Z,9.75
2022-10-12T08:24:01.403Z,11.75
2022-10-12T08:24:58.005Z,10.10
2022-10-12T08:25:56.544Z,10.02
2022-10-12T08:26:53.089Z,11.35
2022-10-12T08:27:49.636Z,11.20
2022-10-12T08:28:46.408Z,11.80
2022-10-12T08:29:43.163Z,11.80
2022-10-12T08:30:39.828Z,11.60
2022-10-12T08:31:36.538Z,11.40
2022-10-12T08:32:33.190Z,11.70
2022-10-12T08:33:30.073Z,11.10
2022-10-12T08:34:26.662Z,10.38
2022-10-12T08:35:23.225Z,11.07
2022-10-12T08:36:19.882Z,11.98
2022-10-12T08:37:16.464Z,10.82
2022-10-12T08:38:13.713Z,11.75
2022-10-12T08:39:10.316Z,11.15
2022-10-12T08:40:07.593Z,11.18
2022-10-12T08:41:18.660Z,11.25
2022-10-12T08:42:32.340Z,10.10
2022-10-12T08:43:38.141Z,10.63
2022-10-12T08:44:45.603Z,11.60
2022-10-12T08:45:54.692Z,11.63
2022-10-12T08:46:59.375Z,11.43
2022-10-12T08:48:01.956Z,12.27
2022-10-12T08:49:05.338Z,11.50
2022-10-12T08:50:04.879Z,11.65
2022-10-12T08:51:06.782Z,12.75
2022-10-12T08:52:06.835Z,12.10
2022-10-12T08:53:17.589Z,11.52
2022-10-12T08:54:17.447Z,12.63
2022-10-12T08:55:26.464Z,11.05
2022-10-12T08:56:23.439Z,11.98
2022-10-12T08:57:20.332Z,11.75
2022-10-12T08:58:20.737Z,10.90
2022-10-12T08:59:18.950Z,12.82
2022-10-12T09:00:16.117Z,10.95
2022-10-12T09:01:31.062Z,10.40
2022-10-12T09:03:08.625Z,11.65
2022-10-12T09:04:27.050Z,12.75
2022-10-12T09:05:33.799Z,10.32
2022-10-12T09:06:37.947Z,10.60
2022-10-12T09:07:47.984Z,12.52
2022-10-12T09:09:06.228Z,10.73
2022-10-12T09:10:21.260Z,11.05
2022-10-12T09:11:20.579Z,11.23
2022-10-12T09:12:43.956Z,9.65
2022-10-12T09:14:10.080Z,14.38
2022-10-12T09:15:15.214Z,23.95
2022-10-12T09:16:23.623Z,13.57
2022-10-12T09:17:30.269Z,10.93
2022-10-12T09:18:40.413Z,8.82
2022-10-12T09:19:41.150Z,11.77
2022-10-12T09:20:47.389Z,11.75
2022-10-12T09:21:47.177Z,8.77
2022-10-12T09:22:49.338Z,10.43
2022-10-12T09:23:47.334Z,9.93
2022-10-12T09:24:45.405Z,10.52
2022-10-12T09:25:42.737Z,10.50
2022-10-12T09:26:42.089Z,9.38
2022-10-12T09:27:44.963Z,12.02
2022-10-12T09:28:54.591Z,9.65
2022-10-12T09:29:57.680Z,10.38
2022-10-12T09:31:32.733Z,9.40
2022-10-12T09:32:54.908Z,9.43
2022-10-12T09:33:57.533Z,8.13
2022-10-12T09:34:54.926Z,9.07
2022-10-12T09:35:53.345Z,8.82
2022-10-12T09:36:50.132Z,8.60
2022-10-12T09:37:52.350Z,9.77
2022-10-12T09:38:50.278Z,9.23
2022-10-12T09:39:47.283Z,9.27
2022-10-12T09:40:45.113Z,8.25
2022-10-12T09:41:44.776Z,7.82
2022-10-12T09:42:42.266Z,8.70
2022-10-12T09:43:39.907Z,8.13
2022-10-12T09:44:56.764Z,8.85
2022-10-12T09:45:53.652Z,6.88
2022-10-12T09:46:56.066Z,8.23
2022-10-12T09:48:17.336Z,9.52
2022-10-12T09:49:14.050Z,8.82
2022-10-12T09:50:10.742Z,7.68
2022-10-12T09:51:07.442Z,8.80
2022-10-12T09:52:04.208Z,13.65
2022-10-12T09:53:01.088Z,11.75
2022-10-12T09:54:03.679Z,9.80
2022-10-12T09:55:05.323Z,11.95
2022-10-12T09:56:11.791Z,9.43
2022-10-12T09:57:19.821Z,9.20
2022-10-12T09:58:21.611Z,8.82
2022-10-12T09:59:27.413Z,7.93
2022-10-12T10:00:41.813Z,8.10
2022-10-12T10:01:38.733Z,8.55
2022-10-12T10:02:48.168Z,8.98
2022-10-12T10:03:52.113Z,8.43
2022-10-12T10:04:50.216Z,8.95
2022-10-12T10:05:46.835Z,8.38
2022-10-12T10:06:46.811Z,10.10
2022-10-12T10:07:43.461Z,11.00
2022-10-12T10:08:43.413Z,8.70
2022-10-12T10:09:40.388Z,10.02
2022-10-12T10:10:37.041Z,8.95
2022-10-12T10:11:36.046Z,8.80
2022-10-12T10:12:33.372Z,8.82
2022-10-12T10:13:32.457Z,8.07
2022-10-12T10:14:35.834Z,8.75
2022-10-12T10:15:36.012Z,9.05
2022-10-12T10:16:32.677Z,10.88
2022-10-12T10:17:32.667Z,8.85
2022-10-12T10:18:32.198Z,8.82
2022-10-12T10:19:28.948Z,9.38
2022-10-12T10:20:33.492Z,10.07
2022-10-12T10:21:36.380Z,10.25
2022-10-12T10:22:33.344Z,9.30
2022-10-12T10:23:32.790Z,8.55
2022-10-12T10:24:32.157Z,10.75
2022-10-12T10:25:28.833Z,10.23
2022-10-12T10:26:27.550Z,11.45
2022-10-12T10:27:37.163Z,8.05
2022-10-12T10:28:45.330Z,9.13
2022-10-12T10:29:43.821Z,12.35
2022-10-12T10:30:41.420Z,11.90
2022-10-12T10:31:38.227Z,10.25
2022-10-12T10:32:35.053Z,9.30
2022-10-12T10:33:34.684Z,10.60
2022-10-12T10:34:31.341Z,12.52
2022-10-12T10:35:27.988Z,12.57
2022-10-12T10:36:27.091Z,9.73
2022-10-12T10:37:23.842Z,9.68
2022-10-12T10:38:20.464Z,12.07
2022-10-12T10:39:46.678Z,9.55
2022-10-12T10:40:51.209Z,8.65
2022-10-12T10:41:49.448Z,9.27
2022-10-12T10:42:51.279Z,9.70
2022-10-12T10:43:48.929Z,9.40
2022-10-12T10:44:57.199Z,18.83
2022-10-12T10:45:57.880Z,13.63
2022-10-12T10:47:02.602Z,13.57
2022-10-12T10:48:08.735Z,9.07
2022-10-12T10:49:07.531Z,19.23
2022-10-12T10:50:09.706Z,13.02
2022-10-12T10:51:07.324Z,10.48
2022-10-12T10:52:06.735Z,10.60
2022-10-12T10:53:08.571Z,14.82
2022-10-12T10:54:23.876Z,9.32
2022-10-12T10:55:22.573Z,8.57
2022-10-12T10:56:24.309Z,9.00
2022-10-12T10:57:23.700Z,19.75
2022-10-12T10:58:30.099Z,19.05
2022-10-12T10:59:42.334Z,13.85
2022-10-12T11:00:43.763Z,12.68
2022-10-12T11:01:46.464Z,13.90
2022-10-12T11:03:55.993Z,10.20
2022-10-12T11:05:00.818Z,12.88
2022-10-12T11:06:33.746Z,13.38
2022-10-12T11:07:56.892Z,21.98
2022-10-12T11:09:04.620Z,11.38
2022-10-12T11:10:09.954Z,14.80
2022-10-12T11:11:15.326Z,10.93
2022-10-12T11:12:30.343Z,13.93
2022-10-12T11:13:36.526Z,12.60
2022-10-12T11:14:44.763Z,10.30
2022-10-12T11:15:52.260Z,10.05
2022-10-12T11:17:00.055Z,10.23
2022-10-12T11:18:11.240Z,11.45
2022-10-12T11:19:38.504Z,9.73
2022-10-12T11:20:46.997Z,8.60
2022-10-12T11:21:51.483Z,11.15
2022-10-12T11:22:58.713Z,9.43
2022-10-12T11:24:05.196Z,9.50
2022-10-12T11:25:12.787Z,8.80
2022-10-12T11:26:12.430Z,11.80
2022-10-12T11:27:09.038Z,11.85
2022-10-12T11:28:08.088Z,26.73
2022-10-12T11:29:06.128Z,24.50
2022-10-12T11:30:12.949Z,16.75
2022-10-12T11:31:19.834Z,12.75
2022-10-12T11:32:34.783Z,14.65
2022-10-12T11:33:39.361Z,17.60
2022-10-12T11:34:48.590Z,18.70
2022-10-12T11:35:46.380Z,26.85
2022-10-12T11:37:07.498Z,25.95
2022-10-12T11:38:15.355Z,12.25
2022-10-12T11:39:31.164Z,12.02
2022-10-12T11:42:20.458Z,10.43
2022-10-12T11:43:22.775Z,12.38
2022-10-12T11:44:52.269Z,10.50
2022-10-12T11:45:53.112Z,12.25
2022-10-12T11:46:56.309Z,12.07
2022-10-12T11:48:00.146Z,13.77
2022-10-12T11:49:01.948Z,11.65
2022-10-12T11:50:10.532Z,11.30
2022-10-12T11:51:07.413Z,13.52
2022-10-12T11:52:11.148Z,11.35
2022-10-12T11:53:34.769Z,13.40
2022-10-12T11:54:59.905Z,14.40
2022-10-12T11:56:11.372Z,13.20
2022-10-12T11:57:17.996Z,12.25
2022-10-12T11:58:59.988Z,17.17
2022-10-12T12:00:16.569Z,14.70
2022-10-12T12:01:29.701Z,17.70
2022-10-12T12:03:56.267Z,15.52
2022-10-12T12:04:53.879Z,13.85
2022-10-12T12:05:50.834Z,17.33
2022-10-12T12:06:59.713Z,18.90
2022-10-12T12:07:57.107Z,14.85
2022-10-12T12:08:53.731Z,13.95
2022-10-12T12:09:51.638Z,13.63
2022-10-12T12:11:04.158Z,23.77
2022-10-12T12:12:13.110Z,25.93
2022-10-12T12:13:13.178Z,23.88
2022-10-12T12:14:21.814Z,14.90
2022-10-12T12:15:22.926Z,12.80
2022-10-12T12:16:19.559Z,13.88
2022-10-12T12:17:18.777Z,24.73
2022-10-12T12:18:21.650Z,13.82
2022-10-12T12:19:41.687Z,26.20
2022-10-12T12:20:44.382Z,35.20
2022-10-12T12:22:18.373Z,22.00
2022-10-12T12:23:41.392Z,18.13
2022-10-12T12:24:39.266Z,26.52
2022-10-12T12:25:37.029Z,27.58
2022-10-12T12:26:34.020Z,21.08
2022-10-12T12:27:35.188Z,21.67
2022-10-12T12:28:32.897Z,18.80
2022-10-12T12:29:29.961Z,22.67
2022-10-12T12:30:37.185Z,17.77
2022-10-12T12:31:34.205Z,16.95
2022-10-12T12:33:00.034Z,19.88
2022-10-12T12:34:13.526Z,22.55
2022-10-12T12:35:19.160Z,17.20
2022-10-12T12:36:29.764Z,16.00
2022-10-12T12:37:31.993Z,16.90
2022-10-12T12:38:50.978Z,15.63
2022-10-12T12:39:54.210Z,15.38
2022-10-12T12:41:06.763Z,14.48
2022-10-12T12:42:06.931Z,13.88
2022-10-12T12:43:29.834Z,15.38
2022-10-12T12:44:42.886Z,17.90
2022-10-12T12:46:52.071Z,15.40
2022-10-12T12:47:48.718Z,15.20
2022-10-12T12:48:45.238Z,15.73
2022-10-12T12:49:52.471Z,12.80
2022-10-12T12:50:50.530Z,17.25
2022-10-12T12:51:47.351Z,16.95
2022-10-12T12:52:44.154Z,17.67
2022-10-12T12:53:48.657Z,17.10
2022-10-12T12:55:14.355Z,16.73
2022-10-12T12:56:38.812Z,14.25
2022-10-12T12:57:56.750Z,15.48
2022-10-12T12:58:58.168Z,12.73
2022-10-12T13:00:06.662Z,16.75
2022-10-12T13:01:15.368Z,16.70
2022-10-12T13:02:36.591Z,16.80
2022-10-12T13:03:48.328Z,19.27
2022-10-12T13:05:12.760Z,17.85
2022-10-12T13:06:27.964Z,18.92
2022-10-12T13:07:36.366Z,15.23
2022-10-12T13:08:54.611Z,17.15
2022-10-12T13:09:57.635Z,15.93
2022-10-12T13:11:28.722Z,15.85
2022-10-12T13:13:02.048Z,14.18
2022-10-12T13:13:58.719Z,12.35
2022-10-12T13:15:04.348Z,12.30
2022-10-12T13:16:07.065Z,12.20
2022-10-12T13:17:31.873Z,11.75
2022-10-12T13:18:52.708Z,11.23
2022-10-12T13:19:49.504Z,8.43
2022-10-12T13:20:48.586Z,10.07
2022-10-12T13:21:49.040Z,9.10
2022-10-12T13:22:47.644Z,9.80
2022-10-12T13:23:48.087Z,9.90
2022-10-12T13:24:51.363Z,9.57